sensor_id;sensor_type;location;lat;lon;timestamp;pressure;altitude;pressure_sealevel;temperature;humidity
5462;BME280;912;48.130;11.348;2022-08-19T00:00:10;94914.06;;;17.88;100.00
5462;BME280;912;48.130;11.348;2022-08-19T00:02:55;94922.75;;;17.94;100.00
5462;BME280;912;48.130;11.348;2022-08-19T00:05:36;94918.15;;;18.00;100.00
5462;BME280;912;48.130;11.348;2022-08-19T00:08:18;94908.89;;;18.01;100.00
5462;BME280;912;48.130;11.348;2022-08-19T00:11:03;94910.11;;;18.08;100.00
5462;BME280;912;48.130;11.348;2022-08-19T00:13:45;94909.47;;;18.05;100.00
5462;BME280;912;48.130;11.348;2022-08-19T00:16:26;94908.48;;;18.11;100.00
5462;BME280;912;48.130;11.348;2022-08-19T00:19:08;94914.21;;;18.17;100.00
5462;BME280;912;48.130;11.348;2022-08-19T00:21:53;94906.23;;;18.15;100.00
5462;BME280;912;48.130;11.348;2022-08-19T00:24:34;94903.39;;;18.16;100.00
5462;BME280;912;48.130;11.348;2022-08-19T00:27:16;94893.73;;;18.20;100.00
5462;BME280;912;48.130;11.348;2022-08-19T00:29:58;94883.90;;;18.19;100.00
5462;BME280;912;48.130;11.348;2022-08-19T00:32:40;94877.74;;;18.16;100.00
5462;BME280;912;48.130;11.348;2022-08-19T00:35:50;94879.39;;;18.15;100.00
5462;BME280;912;48.130;11.348;2022-08-19T00:38:32;94876.98;;;18.14;100.00
5462;BME280;912;48.130;11.348;2022-08-19T00:41:17;94882.44;;;18.11;100.00
5462;BME280;912;48.130;11.348;2022-08-19T00:44:02;94884.05;;;18.15;100.00
5462;BME280;912;48.130;11.348;2022-08-19T00:46:43;94886.09;;;18.17;100.00
5462;BME280;912;48.130;11.348;2022-08-19T00:49:26;94876.87;;;18.22;100.00
5462;BME280;912;48.130;11.348;2022-08-19T00:52:15;94871.07;;;18.17;100.00
5462;BME280;912;48.130;11.348;2022-08-19T00:54:56;94865.08;;;18.15;100.00
5462;BME280;912;48.130;11.348;2022-08-19T00:57:41;94866.21;;;18.18;100.00
5462;BME280;912;48.130;11.348;2022-08-19T01:00:23;94871.59;;;18.13;100.00
5462;BME280;912;48.130;11.348;2022-08-19T01:03:07;94876.77;;;18.13;100.00
5462;BME280;912;48.130;11.348;2022-08-19T01:05:48;94883.09;;;18.12;100.00
5462;BME280;912;48.130;11.348;2022-08-19T01:08:29;94879.87;;;18.12;100.00
5462;BME280;912;48.130;11.348;2022-08-19T01:11:11;94869.56;;;18.09;100.00
5462;BME280;912;48.130;11.348;2022-08-19T01:13:56;94855.25;;;18.14;100.00
5462;BME280;912;48.130;11.348;2022-08-19T01:16:38;94849.67;;;18.11;100.00
5462;BME280;912;48.130;11.348;2022-08-19T01:22:12;94869.19;;;18.10;100.00
5462;BME280;912;48.130;11.348;2022-08-19T01:24:51;94876.55;;;18.10;100.00
5462;BME280;912;48.130;11.348;2022-08-19T01:27:42;94872.50;;;18.13;100.00
5462;BME280;912;48.130;11.348;2022-08-19T01:30:28;94871.97;;;18.07;100.00
5462;BME280;912;48.130;11.348;2022-08-19T01:35:51;94873.91;;;18.06;100.00
5462;BME280;912;48.130;11.348;2022-08-19T01:38:34;94881.41;;;18.00;100.00
5462;BME280;912;48.130;11.348;2022-08-19T01:41:14;94888.27;;;17.95;100.00
5462;BME280;912;48.130;11.348;2022-08-19T01:43:56;94888.50;;;17.97;100.00
5462;BME280;912;48.130;11.348;2022-08-19T01:46:38;94899.03;;;17.97;100.00
5462;BME280;912;48.130;11.348;2022-08-19T01:49:20;94899.39;;;17.93;100.00
5462;BME280;912;48.130;11.348;2022-08-19T01:52:02;94901.03;;;17.93;100.00
5462;BME280;912;48.130;11.348;2022-08-19T01:54:43;94916.17;;;17.93;100.00
5462;BME280;912;48.130;11.348;2022-08-19T01:57:25;94910.36;;;17.88;100.00
5462;BME280;912;48.130;11.348;2022-08-19T02:00:10;94909.20;;;17.88;100.00
5462;BME280;912;48.130;11.348;2022-08-19T02:02:53;94890.57;;;17.87;100.00
5462;BME280;912;48.130;11.348;2022-08-19T02:05:34;94884.52;;;17.88;100.00
5462;BME280;912;48.130;11.348;2022-08-19T02:08:19;94888.80;;;17.87;100.00
5462;BME280;912;48.130;11.348;2022-08-19T02:11:03;94883.05;;;17.82;100.00
5462;BME280;912;48.130;11.348;2022-08-19T02:13:45;94885.25;;;17.85;100.00
5462;BME280;912;48.130;11.348;2022-08-19T02:16:27;94889.27;;;17.81;100.00
5462;BME280;912;48.130;11.348;2022-08-19T02:19:08;94899.12;;;17.84;100.00
5462;BME280;912;48.130;11.348;2022-08-19T02:21:50;94902.63;;;17.86;100.00
5462;BME280;912;48.130;11.348;2022-08-19T02:24:32;94903.78;;;17.94;100.00
5462;BME280;912;48.130;11.348;2022-08-19T02:27:14;94917.69;;;17.94;100.00
5462;BME280;912;48.130;11.348;2022-08-19T02:29:55;94917.66;;;17.99;100.00
5462;BME280;912;48.130;11.348;2022-08-19T02:32:37;94919.69;;;18.09;100.00
5462;BME280;912;48.130;11.348;2022-08-19T02:35:50;94918.83;;;18.09;100.00
5462;BME280;912;48.130;11.348;2022-08-19T02:38:35;94915.02;;;18.12;100.00
5462;BME280;912;48.130;11.348;2022-08-19T02:41:18;94907.25;;;18.11;100.00
5462;BME280;912;48.130;11.348;2022-08-19T02:43:59;94900.63;;;18.16;100.00
5462;BME280;912;48.130;11.348;2022-08-19T02:46:40;94891.58;;;18.16;100.00
5462;BME280;912;48.130;11.348;2022-08-19T02:49:24;94882.12;;;18.09;100.00
5462;BME280;912;48.130;11.348;2022-08-19T02:52:06;94865.80;;;18.06;100.00
5462;BME280;912;48.130;11.348;2022-08-19T02:54:48;94853.09;;;18.00;100.00
5462;BME280;912;48.130;11.348;2022-08-19T02:57:33;94847.82;;;18.01;100.00
5462;BME280;912;48.130;11.348;2022-08-19T03:00:15;94850.39;;;17.97;100.00
5462;BME280;912;48.130;11.348;2022-08-19T03:02:56;94848.40;;;18.00;100.00
5462;BME280;912;48.130;11.348;2022-08-19T03:05:38;94841.00;;;17.99;100.00
5462;BME280;912;48.130;11.348;2022-08-19T03:08:20;94828.51;;;18.18;100.00
5462;BME280;912;48.130;11.348;2022-08-19T03:11:01;94825.92;;;18.10;100.00
5462;BME280;912;48.130;11.348;2022-08-19T03:13:43;94832.39;;;18.05;100.00
5462;BME280;912;48.130;11.348;2022-08-19T03:16:26;94837.36;;;18.03;100.00
5462;BME280;912;48.130;11.348;2022-08-19T03:19:06;94847.77;;;18.03;100.00
5462;BME280;912;48.130;11.348;2022-08-19T03:21:48;94867.05;;;18.10;100.00
5462;BME280;912;48.130;11.348;2022-08-19T03:24:30;94884.20;;;18.05;100.00
5462;BME280;912;48.130;11.348;2022-08-19T03:27:11;94888.17;;;18.07;100.00
5462;BME280;912;48.130;11.348;2022-08-19T03:29:53;94895.41;;;18.09;100.00
5462;BME280;912;48.130;11.348;2022-08-19T03:32:35;94898.69;;;18.11;100.00
5462;BME280;912;48.130;11.348;2022-08-19T03:36:03;94895.13;;;18.15;100.00
5462;BME280;912;48.130;11.348;2022-08-19T03:38:50;94895.58;;;18.07;100.00
5462;BME280;912;48.130;11.348;2022-08-19T03:41:31;94891.81;;;18.11;100.00
5462;BME280;912;48.130;11.348;2022-08-19T03:44:13;94885.70;;;18.14;100.00
5462;BME280;912;48.130;11.348;2022-08-19T03:47:00;94881.75;;;18.24;100.00
5462;BME280;912;48.130;11.348;2022-08-19T03:49:42;94879.75;;;18.23;100.00
5462;BME280;912;48.130;11.348;2022-08-19T03:52:23;94881.98;;;18.27;100.00
5462;BME280;912;48.130;11.348;2022-08-19T03:55:06;94879.42;;;18.28;100.00
5462;BME280;912;48.130;11.348;2022-08-19T03:57:48;94880.72;;;18.21;100.00
5462;BME280;912;48.130;11.348;2022-08-19T04:00:29;94876.84;;;18.26;100.00
5462;BME280;912;48.130;11.348;2022-08-19T04:03:14;94872.53;;;18.35;100.00
5462;BME280;912;48.130;11.348;2022-08-19T04:05:56;94859.86;;;18.29;100.00
5462;BME280;912;48.130;11.348;2022-08-19T04:09:11;94849.72;;;18.22;100.00
5462;BME280;912;48.130;11.348;2022-08-19T04:11:54;94849.86;;;18.18;100.00
5462;BME280;912;48.130;11.348;2022-08-19T04:14:35;94853.34;;;18.11;100.00
5462;BME280;912;48.130;11.348;2022-08-19T04:17:17;94857.05;;;18.09;100.00
5462;BME280;912;48.130;11.348;2022-08-19T04:19:59;94863.03;;;18.03;100.00
5462;BME280;912;48.130;11.348;2022-08-19T04:25:15;94871.55;;;18.02;100.00
5462;BME280;912;48.130;11.348;2022-08-19T04:27:59;94882.64;;;18.05;100.00
5462;BME280;912;48.130;11.348;2022-08-19T04:35:51;94898.16;;;18.11;100.00
5462;BME280;912;48.130;11.348;2022-08-19T04:38:32;94900.40;;;18.08;100.00
5462;BME280;912;48.130;11.348;2022-08-19T04:41:13;94891.56;;;18.06;100.00
5462;BME280;912;48.130;11.348;2022-08-19T04:44:00;94895.91;;;18.08;100.00
5462;BME280;912;48.130;11.348;2022-08-19T04:46:42;94905.19;;;18.11;100.00
5462;BME280;912;48.130;11.348;2022-08-19T04:49:24;94913.64;;;18.16;100.00
5462;BME280;912;48.130;11.348;2022-08-19T04:52:06;94916.09;;;18.23;100.00
5462;BME280;912;48.130;11.348;2022-08-19T04:54:47;94919.70;;;18.30;100.00
5462;BME280;912;48.130;11.348;2022-08-19T04:57:29;94918.95;;;18.27;100.00
5462;BME280;912;48.130;11.348;2022-08-19T05:00:11;94923.10;;;18.27;100.00
5462;BME280;912;48.130;11.348;2022-08-19T05:02:53;94923.44;;;18.26;100.00
5462;BME280;912;48.130;11.348;2022-08-19T05:05:38;94926.48;;;18.43;100.00
5462;BME280;912;48.130;11.348;2022-08-19T05:08:20;94936.46;;;18.53;100.00
5462;BME280;912;48.130;11.348;2022-08-19T05:11:01;94939.09;;;18.58;100.00
5462;BME280;912;48.130;11.348;2022-08-19T05:13:43;94940.25;;;18.53;100.00
5462;BME280;912;48.130;11.348;2022-08-19T05:16:27;94934.73;;;18.52;100.00
5462;BME280;912;48.130;11.348;2022-08-19T05:20:59;94933.18;;;18.60;100.00
5462;BME280;912;48.130;11.348;2022-08-19T05:23:49;94942.22;;;18.66;100.00
5462;BME280;912;48.130;11.348;2022-08-19T05:26:33;94947.26;;;18.58;100.00
5462;BME280;912;48.130;11.348;2022-08-19T05:29:18;94937.50;;;18.69;100.00
5462;BME280;912;48.130;11.348;2022-08-19T05:31:59;94929.02;;;18.69;100.00
5462;BME280;912;48.130;11.348;2022-08-19T05:35:50;94911.19;;;18.46;100.00
5462;BME280;912;48.130;11.348;2022-08-19T05:38:32;94903.61;;;18.45;100.00
5462;BME280;912;48.130;11.348;2022-08-19T05:41:14;94901.69;;;18.62;100.00
5462;BME280;912;48.130;11.348;2022-08-19T05:44:00;94907.54;;;18.66;100.00
5462;BME280;912;48.130;11.348;2022-08-19T05:46:35;94903.41;;;18.68;100.00
5462;BME280;912;48.130;11.348;2022-08-19T05:49:16;94900.41;;;18.76;100.00
5462;BME280;912;48.130;11.348;2022-08-19T05:51:58;94905.19;;;18.84;100.00
5462;BME280;912;48.130;11.348;2022-08-19T05:54:40;94897.21;;;18.91;100.00
5462;BME280;912;48.130;11.348;2022-08-19T05:57:23;94901.68;;;18.80;100.00
5462;BME280;912;48.130;11.348;2022-08-19T06:00:13;94901.80;;;18.81;100.00
5462;BME280;912;48.130;11.348;2022-08-19T06:02:55;94905.00;;;18.86;100.00
5462;BME280;912;48.130;11.348;2022-08-19T06:05:37;94906.75;;;18.84;100.00
5462;BME280;912;48.130;11.348;2022-08-19T06:08:19;94909.23;;;18.99;100.00
5462;BME280;912;48.130;11.348;2022-08-19T06:11:17;94911.63;;;19.12;100.00
5462;BME280;912;48.130;11.348;2022-08-19T06:13:57;94915.48;;;19.35;100.00
5462;BME280;912;48.130;11.348;2022-08-19T06:16:45;94923.93;;;19.21;100.00
5462;BME280;912;48.130;11.348;2022-08-19T06:19:29;94934.34;;;19.19;100.00
5462;BME280;912;48.130;11.348;2022-08-19T06:22:13;94937.92;;;19.12;100.00
5462;BME280;912;48.130;11.348;2022-08-19T06:24:55;94946.31;;;19.26;100.00
5462;BME280;912;48.130;11.348;2022-08-19T06:27:39;94946.10;;;19.18;100.00
5462;BME280;912;48.130;11.348;2022-08-19T06:30:21;94945.98;;;18.97;100.00
5462;BME280;912;48.130;11.348;2022-08-19T06:35:51;94947.81;;;18.99;100.00
5462;BME280;912;48.130;11.348;2022-08-19T06:38:32;94943.66;;;18.89;100.00
5462;BME280;912;48.130;11.348;2022-08-19T06:41:14;94946.09;;;18.76;100.00
5462;BME280;912;48.130;11.348;2022-08-19T06:43:56;94945.28;;;18.79;100.00
5462;BME280;912;48.130;11.348;2022-08-19T06:46:38;94937.16;;;18.84;100.00
5462;BME280;912;48.130;11.348;2022-08-19T06:49:23;94941.03;;;18.76;100.00
5462;BME280;912;48.130;11.348;2022-08-19T06:52:04;94941.20;;;18.89;100.00
5462;BME280;912;48.130;11.348;2022-08-19T06:54:46;94935.67;;;19.10;100.00
5462;BME280;912;48.130;11.348;2022-08-19T06:57:28;94935.51;;;19.30;100.00
5462;BME280;912;48.130;11.348;2022-08-19T07:00:13;94930.24;;;19.35;100.00
5462;BME280;912;48.130;11.348;2022-08-19T07:02:54;94927.02;;;19.51;100.00
5462;BME280;912;48.130;11.348;2022-08-19T07:05:40;94927.09;;;19.53;100.00
5462;BME280;912;48.130;11.348;2022-08-19T07:08:20;94929.25;;;19.72;100.00
5462;BME280;912;48.130;11.348;2022-08-19T07:11:05;94924.52;;;19.64;100.00
5462;BME280;912;48.130;11.348;2022-08-19T07:13:44;94918.59;;;19.67;100.00
5462;BME280;912;48.130;11.348;2022-08-19T07:16:25;94913.28;;;19.78;100.00
5462;BME280;912;48.130;11.348;2022-08-19T07:19:09;94915.78;;;19.80;100.00
5462;BME280;912;48.130;11.348;2022-08-19T07:21:51;94918.14;;;19.82;100.00
5462;BME280;912;48.130;11.348;2022-08-19T07:24:34;94910.28;;;19.65;100.00
5462;BME280;912;48.130;11.348;2022-08-19T07:27:15;94904.52;;;19.61;100.00
5462;BME280;912;48.130;11.348;2022-08-19T07:29:57;94903.50;;;19.60;100.00
5462;BME280;912;48.130;11.348;2022-08-19T07:32:39;94896.43;;;19.49;100.00
5462;BME280;912;48.130;11.348;2022-08-19T07:35:50;94892.81;;;19.60;100.00
5462;BME280;912;48.130;11.348;2022-08-19T07:38:32;94897.10;;;19.70;100.00
5462;BME280;912;48.130;11.348;2022-08-19T07:41:15;94894.83;;;19.67;100.00
5462;BME280;912;48.130;11.348;2022-08-19T07:43:55;94897.97;;;19.63;100.00
5462;BME280;912;48.130;11.348;2022-08-19T07:46:38;94898.88;;;20.13;100.00
5462;BME280;912;48.130;11.348;2022-08-19T07:49:19;94899.77;;;20.01;100.00
5462;BME280;912;48.130;11.348;2022-08-19T07:52:01;94903.20;;;19.97;100.00
5462;BME280;912;48.130;11.348;2022-08-19T07:54:42;94903.39;;;19.95;100.00
5462;BME280;912;48.130;11.348;2022-08-19T07:57:23;94907.61;;;20.44;100.00
5462;BME280;912;48.130;11.348;2022-08-19T08:00:06;94916.98;;;20.41;100.00
5462;BME280;912;48.130;11.348;2022-08-19T08:02:49;94918.82;;;20.53;100.00
5462;BME280;912;48.130;11.348;2022-08-19T08:05:31;94917.28;;;20.34;100.00
5462;BME280;912;48.130;11.348;2022-08-19T08:08:18;94914.56;;;20.35;100.00
5462;BME280;912;48.130;11.348;2022-08-19T08:11:08;94916.02;;;20.19;100.00
5462;BME280;912;48.130;11.348;2022-08-19T08:13:50;94919.51;;;20.14;100.00
5462;BME280;912;48.130;11.348;2022-08-19T08:16:35;94920.31;;;19.95;100.00
5462;BME280;912;48.130;11.348;2022-08-19T08:19:16;94925.44;;;19.71;100.00
5462;BME280;912;48.130;11.348;2022-08-19T08:22:00;94931.41;;;19.61;100.00
5462;BME280;912;48.130;11.348;2022-08-19T08:24:41;94930.13;;;19.31;100.00
5462;BME280;912;48.130;11.348;2022-08-19T08:27:23;94935.32;;;19.24;100.00
5462;BME280;912;48.130;11.348;2022-08-19T08:30:07;94930.75;;;19.34;100.00
5462;BME280;912;48.130;11.348;2022-08-19T08:32:49;94927.05;;;19.22;100.00
5462;BME280;912;48.130;11.348;2022-08-19T08:35:54;94929.05;;;19.24;100.00
5462;BME280;912;48.130;11.348;2022-08-19T08:38:36;94926.47;;;19.41;100.00
5462;BME280;912;48.130;11.348;2022-08-19T08:44:15;94939.23;;;19.32;100.00
5462;BME280;912;48.130;11.348;2022-08-19T08:46:57;94939.33;;;19.38;100.00
5462;BME280;912;48.130;11.348;2022-08-19T08:49:55;94939.46;;;19.22;100.00
5462;BME280;912;48.130;11.348;2022-08-19T08:52:39;94947.34;;;19.10;100.00
5462;BME280;912;48.130;11.348;2022-08-19T08:55:20;94945.86;;;19.06;100.00
5462;BME280;912;48.130;11.348;2022-08-19T08:58:13;94946.59;;;19.12;100.00
5462;BME280;912;48.130;11.348;2022-08-19T09:00:53;94950.72;;;19.06;100.00
5462;BME280;912;48.130;11.348;2022-08-19T09:03:39;94954.66;;;19.04;100.00
5462;BME280;912;48.130;11.348;2022-08-19T09:09:30;94957.41;;;18.93;100.00
5462;BME280;912;48.130;11.348;2022-08-19T09:12:33;94957.48;;;18.93;100.00
5462;BME280;912;48.130;11.348;2022-08-19T09:15:13;94957.73;;;18.93;100.00
5462;BME280;912;48.130;11.348;2022-08-19T09:17:58;94962.31;;;18.92;100.00
5462;BME280;912;48.130;11.348;2022-08-19T09:20:36;94952.80;;;18.95;100.00
5462;BME280;912;48.130;11.348;2022-08-19T09:23:18;94953.83;;;18.86;100.00
5462;BME280;912;48.130;11.348;2022-08-19T09:26:00;94961.30;;;18.77;100.00
5462;BME280;912;48.130;11.348;2022-08-19T09:28:42;94960.41;;;18.88;100.00
5462;BME280;912;48.130;11.348;2022-08-19T09:31:25;94957.80;;;18.99;100.00
5462;BME280;912;48.130;11.348;2022-08-19T09:36:01;94959.50;;;19.01;100.00
5462;BME280;912;48.130;11.348;2022-08-19T09:38:34;94956.30;;;19.08;100.00
5462;BME280;912;48.130;11.348;2022-08-19T09:41:16;94958.61;;;18.96;100.00
5462;BME280;912;48.130;11.348;2022-08-19T09:43:57;94959.70;;;19.07;100.00
5462;BME280;912;48.130;11.348;2022-08-19T09:46:38;94961.77;;;19.15;100.00
5462;BME280;912;48.130;11.348;2022-08-19T09:49:20;94959.45;;;19.12;100.00
5462;BME280;912;48.130;11.348;2022-08-19T09:52:07;94964.61;;;18.97;100.00
5462;BME280;912;48.130;11.348;2022-08-19T09:54:47;94967.70;;;18.93;100.00
5462;BME280;912;48.130;11.348;2022-08-19T09:57:29;94967.94;;;18.90;100.00
5462;BME280;912;48.130;11.348;2022-08-19T10:00:11;94962.08;;;19.03;100.00
5462;BME280;912;48.130;11.348;2022-08-19T10:02:53;94963.80;;;19.30;100.00
5462;BME280;912;48.130;11.348;2022-08-19T10:05:34;94962.48;;;19.36;100.00
5462;BME280;912;48.130;11.348;2022-08-19T10:08:24;94969.33;;;19.36;100.00
5462;BME280;912;48.130;11.348;2022-08-19T10:11:04;94970.78;;;19.35;100.00
5462;BME280;912;48.130;11.348;2022-08-19T10:13:46;94968.31;;;19.32;100.00
5462;BME280;912;48.130;11.348;2022-08-19T10:16:28;94960.27;;;19.23;100.00
5462;BME280;912;48.130;11.348;2022-08-19T10:19:09;94960.88;;;19.20;100.00
5462;BME280;912;48.130;11.348;2022-08-19T10:21:52;94958.56;;;19.00;100.00
5462;BME280;912;48.130;11.348;2022-08-19T10:24:34;94954.42;;;19.07;100.00
5462;BME280;912;48.130;11.348;2022-08-19T10:27:16;94958.96;;;18.94;100.00
5462;BME280;912;48.130;11.348;2022-08-19T10:29:58;94953.48;;;18.93;100.00
5462;BME280;912;48.130;11.348;2022-08-19T10:32:40;94953.64;;;19.03;100.00
5462;BME280;912;48.130;11.348;2022-08-19T10:35:59;94951.00;;;19.31;100.00
5462;BME280;912;48.130;11.348;2022-08-19T10:38:41;94953.23;;;19.48;100.00
5462;BME280;912;48.130;11.348;2022-08-19T10:41:24;94957.08;;;19.60;100.00
5462;BME280;912;48.130;11.348;2022-08-19T10:44:07;94956.43;;;19.80;100.00
5462;BME280;912;48.130;11.348;2022-08-19T10:46:48;94959.39;;;19.88;100.00
5462;BME280;912;48.130;11.348;2022-08-19T10:49:30;94958.91;;;19.99;100.00
5462;BME280;912;48.130;11.348;2022-08-19T10:52:15;94958.15;;;19.97;100.00
5462;BME280;912;48.130;11.348;2022-08-19T10:55:04;94956.53;;;19.65;100.00
5462;BME280;912;48.130;11.348;2022-08-19T10:57:51;94951.66;;;19.78;100.00
5462;BME280;912;48.130;11.348;2022-08-19T11:00:33;94949.91;;;20.25;100.00
5462;BME280;912;48.130;11.348;2022-08-19T11:03:15;94946.92;;;20.53;100.00
5462;BME280;912;48.130;11.348;2022-08-19T11:06:01;94954.59;;;20.18;100.00
5462;BME280;912;48.130;11.348;2022-08-19T11:08:42;94954.17;;;20.13;100.00
5462;BME280;912;48.130;11.348;2022-08-19T11:11:23;94947.47;;;20.44;100.00
5462;BME280;912;48.130;11.348;2022-08-19T11:14:06;94944.31;;;20.59;100.00
5462;BME280;912;48.130;11.348;2022-08-19T11:16:48;94953.66;;;20.82;100.00
5462;BME280;912;48.130;11.348;2022-08-19T11:19:29;94952.72;;;20.67;100.00
5462;BME280;912;48.130;11.348;2022-08-19T11:22:10;94952.77;;;20.99;100.00
5462;BME280;912;48.130;11.348;2022-08-19T11:24:52;94950.41;;;21.13;100.00
5462;BME280;912;48.130;11.348;2022-08-19T11:30:12;94954.72;;;21.35;100.00
5462;BME280;912;48.130;11.348;2022-08-19T11:32:53;94958.57;;;21.12;100.00
5462;BME280;912;48.130;11.348;2022-08-19T11:35:50;94954.13;;;21.04;100.00
5462;BME280;912;48.130;11.348;2022-08-19T11:38:35;94959.72;;;21.39;100.00
5462;BME280;912;48.130;11.348;2022-08-19T11:41:18;94961.56;;;21.36;100.00
5462;BME280;912;48.130;11.348;2022-08-19T11:43:59;94969.16;;;21.30;100.00
5462;BME280;912;48.130;11.348;2022-08-19T11:46:41;94965.39;;;21.13;100.00
5462;BME280;912;48.130;11.348;2022-08-19T11:51:57;94971.15;;;21.67;100.00
5462;BME280;912;48.130;11.348;2022-08-19T11:54:40;94970.05;;;22.27;100.00
5462;BME280;912;48.130;11.348;2022-08-19T11:57:22;94968.30;;;23.05;100.00
5462;BME280;912;48.130;11.348;2022-08-19T12:00:05;94972.56;;;23.41;100.00
5462;BME280;912;48.130;11.348;2022-08-19T12:02:50;94970.39;;;23.87;100.00
5462;BME280;912;48.130;11.348;2022-08-19T12:05:32;94979.91;;;23.37;100.00
5462;BME280;912;48.130;11.348;2022-08-19T12:08:14;94978.67;;;22.85;100.00
5462;BME280;912;48.130;11.348;2022-08-19T12:10:55;94983.63;;;22.50;100.00
5462;BME280;912;48.130;11.348;2022-08-19T12:13:37;94991.88;;;22.32;100.00
5462;BME280;912;48.130;11.348;2022-08-19T12:16:21;94992.56;;;22.45;100.00
5462;BME280;912;48.130;11.348;2022-08-19T12:19:03;94991.19;;;21.97;100.00
5462;BME280;912;48.130;11.348;2022-08-19T12:21:43;94992.73;;;21.59;100.00
5462;BME280;912;48.130;11.348;2022-08-19T12:24:31;94993.89;;;21.89;100.00
5462;BME280;912;48.130;11.348;2022-08-19T12:28:23;95004.38;;;22.23;100.00
5462;BME280;912;48.130;11.348;2022-08-19T12:31:07;95002.69;;;21.98;100.00
5462;BME280;912;48.130;11.348;2022-08-19T12:35:51;95012.23;;;21.83;100.00
5462;BME280;912;48.130;11.348;2022-08-19T12:38:33;95008.73;;;21.71;100.00
5462;BME280;912;48.130;11.348;2022-08-19T12:41:15;95007.47;;;21.78;100.00
5462;BME280;912;48.130;11.348;2022-08-19T12:43:56;95005.85;;;21.61;100.00
5462;BME280;912;48.130;11.348;2022-08-19T12:46:38;95012.38;;;21.62;100.00
5462;BME280;912;48.130;11.348;2022-08-19T12:49:21;95012.39;;;21.53;100.00
5462;BME280;912;48.130;11.348;2022-08-19T12:52:06;95020.78;;;21.24;100.00
5462;BME280;912;48.130;11.348;2022-08-19T12:54:49;95025.69;;;21.29;100.00
5462;BME280;912;48.130;11.348;2022-08-19T13:00:08;95017.20;;;21.01;100.00
5462;BME280;912;48.130;11.348;2022-08-19T13:02:51;95011.00;;;21.08;100.00
5462;BME280;912;48.130;11.348;2022-08-19T13:05:33;95009.03;;;21.07;100.00
5462;BME280;912;48.130;11.348;2022-08-19T13:08:15;95008.77;;;21.32;100.00
5462;BME280;912;48.130;11.348;2022-08-19T13:10:56;95015.92;;;20.99;100.00
5462;BME280;912;48.130;11.348;2022-08-19T13:13:39;95016.08;;;20.91;100.00
5462;BME280;912;48.130;11.348;2022-08-19T13:16:20;95022.83;;;21.05;100.00
5462;BME280;912;48.130;11.348;2022-08-19T13:19:04;95023.63;;;21.01;100.00
5462;BME280;912;48.130;11.348;2022-08-19T13:21:48;95020.25;;;20.85;100.00
5462;BME280;912;48.130;11.348;2022-08-19T13:24:28;95013.69;;;20.90;100.00
5462;BME280;912;48.130;11.348;2022-08-19T13:27:10;95009.59;;;21.03;100.00
5462;BME280;912;48.130;11.348;2022-08-19T13:29:53;95006.75;;;21.24;100.00
5462;BME280;912;48.130;11.348;2022-08-19T13:32:40;95009.34;;;21.18;100.00
5462;BME280;912;48.130;11.348;2022-08-19T13:35:51;95008.59;;;21.23;100.00
5462;BME280;912;48.130;11.348;2022-08-19T13:38:32;95002.63;;;21.68;100.00
5462;BME280;912;48.130;11.348;2022-08-19T13:41:14;95009.02;;;22.26;100.00
5462;BME280;912;48.130;11.348;2022-08-19T13:43:56;95009.77;;;22.71;100.00
5462;BME280;912;48.130;11.348;2022-08-19T13:46:38;95008.42;;;23.31;100.00
5462;BME280;912;48.130;11.348;2022-08-19T13:49:20;95005.62;;;23.38;100.00
5462;BME280;912;48.130;11.348;2022-08-19T13:52:03;95008.06;;;22.77;100.00
5462;BME280;912;48.130;11.348;2022-08-19T13:54:44;95004.69;;;22.04;100.00
5462;BME280;912;48.130;11.348;2022-08-19T13:57:25;95004.42;;;21.98;100.00
5462;BME280;912;48.130;11.348;2022-08-19T14:00:09;95001.80;;;21.72;100.00
5462;BME280;912;48.130;11.348;2022-08-19T14:02:52;95001.93;;;21.75;100.00
5462;BME280;912;48.130;11.348;2022-08-19T14:05:33;95001.23;;;21.72;100.00
5462;BME280;912;48.130;11.348;2022-08-19T14:08:15;94997.08;;;21.76;100.00
5462;BME280;912;48.130;11.348;2022-08-19T14:11:00;95000.31;;;21.59;100.00
5462;BME280;912;48.130;11.348;2022-08-19T14:13:44;94995.15;;;21.20;100.00
5462;BME280;912;48.130;11.348;2022-08-19T14:16:26;94992.87;;;21.48;100.00
5462;BME280;912;48.130;11.348;2022-08-19T14:19:08;95002.25;;;21.53;100.00
5462;BME280;912;48.130;11.348;2022-08-19T14:21:49;95002.89;;;21.24;100.00
5462;BME280;912;48.130;11.348;2022-08-19T14:24:31;95000.20;;;21.19;100.00
5462;BME280;912;48.130;11.348;2022-08-19T14:27:13;95004.17;;;21.15;100.00
5462;BME280;912;48.130;11.348;2022-08-19T14:29:57;95011.41;;;21.18;100.00
5462;BME280;912;48.130;11.348;2022-08-19T14:32:42;95012.98;;;21.24;100.00
5462;BME280;912;48.130;11.348;2022-08-19T14:35:51;95013.42;;;21.21;100.00
5462;BME280;912;48.130;11.348;2022-08-19T14:38:33;95019.78;;;21.12;100.00
5462;BME280;912;48.130;11.348;2022-08-19T14:41:17;95018.66;;;20.98;100.00
5462;BME280;912;48.130;11.348;2022-08-19T14:43:58;95021.08;;;20.89;100.00
5462;BME280;912;48.130;11.348;2022-08-19T14:46:39;95029.74;;;21.13;100.00
5462;BME280;912;48.130;11.348;2022-08-19T14:49:21;95029.37;;;21.02;100.00
5462;BME280;912;48.130;11.348;2022-08-19T14:52:03;95032.73;;;21.09;100.00
5462;BME280;912;48.130;11.348;2022-08-19T14:54:45;95031.17;;;21.06;100.00
5462;BME280;912;48.130;11.348;2022-08-19T14:57:26;95035.12;;;20.86;100.00
5462;BME280;912;48.130;11.348;2022-08-19T15:00:10;95032.11;;;20.94;100.00
5462;BME280;912;48.130;11.348;2022-08-19T15:02:53;95032.55;;;20.89;100.00
5462;BME280;912;48.130;11.348;2022-08-19T15:05:35;95036.23;;;20.87;100.00
5462;BME280;912;48.130;11.348;2022-08-19T15:08:19;95033.90;;;20.81;100.00
5462;BME280;912;48.130;11.348;2022-08-19T15:13:07;95038.83;;;20.85;100.00
5462;BME280;912;48.130;11.348;2022-08-19T15:15:48;95033.85;;;20.73;100.00